sensor_id;sensor_type;location;lat;lon;timestamp;pressure;altitude;pressure_sealevel;temperature;humidity
63343;BME280;49465;57.664;39.686;2023-02-26T04:07:20;98259.44;;;4.11;64.92
63343;BME280;49465;57.664;39.686;2023-02-26T04:09:50;98265.34;;;4.13;64.47
63343;BME280;49465;57.664;39.686;2023-02-26T04:12:22;98262.19;;;4.21;65.10
63343;BME280;49465;57.664;39.686;2023-02-26T04:14:52;98271.59;;;3.97;65.19
63343;BME280;49465;57.664;39.686;2023-02-26T04:17:27;98261.69;;;4.15;65.44
63343;BME280;49465;57.664;39.686;2023-02-26T04:19:56;98262.66;;;4.87;63.55
63343;BME280;49465;57.664;39.686;2023-02-26T04:22:22;98257.16;;;4.06;65.02
63343;BME280;49465;57.664;39.686;2023-02-26T04:24:54;98263.69;;;3.99;65.08
63343;BME280;49465;57.664;39.686;2023-02-26T04:27:28;98258.16;;;4.29;65.15
63343;BME280;49465;57.664;39.686;2023-02-26T04:30:04;98259.50;;;4.22;64.04
63343;BME280;49465;57.664;39.686;2023-02-26T04:32:30;98253.66;;;3.94;65.30
63343;BME280;49465;57.664;39.686;2023-02-26T04:35:03;98243.25;;;4.07;65.08
63343;BME280;49465;57.664;39.686;2023-02-26T04:37:32;98248.16;;;3.99;64.76
63343;BME280;49465;57.664;39.686;2023-02-26T04:40:04;98242.03;;;4.00;66.36
63343;BME280;49465;57.664;39.686;2023-02-26T04:42:36;98240.66;;;4.07;65.48
63343;BME280;49465;57.664;39.686;2023-02-26T04:45:05;98234.56;;;3.95;65.17
63343;BME280;49465;57.664;39.686;2023-02-26T04:47:32;98233.94;;;3.92;65.36
63343;BME280;49465;57.664;39.686;2023-02-26T04:50:01;98230.91;;;4.11;65.51
63343;BME280;49465;57.664;39.686;2023-02-26T04:52:28;98231.75;;;3.99;64.72
63343;BME280;49465;57.664;39.686;2023-02-26T04:54:54;98229.06;;;4.00;65.28
63343;BME280;49465;57.664;39.686;2023-02-26T04:57:26;98235.16;;;4.12;64.97
63343;BME280;49465;57.664;39.686;2023-02-26T04:59:55;98224.91;;;3.97;65.64
63343;BME280;49465;57.664;39.686;2023-02-26T05:02:28;98224.34;;;4.18;65.25
63343;BME280;49465;57.664;39.686;2023-02-26T05:05:01;98231.19;;;4.19;64.87
63343;BME280;49465;57.664;39.686;2023-02-26T05:07:31;98229.97;;;4.12;65.22
63343;BME280;49465;57.664;39.686;2023-02-26T05:10:06;98235.00;;;4.26;65.20
63343;BME280;49465;57.664;39.686;2023-02-26T05:12:33;98225.22;;;4.06;65.66
63343;BME280;49465;57.664;39.686;2023-02-26T05:14:59;98225.09;;;4.07;64.53
63343;BME280;49465;57.664;39.686;2023-02-26T05:17:28;98229.31;;;4.21;65.86
63343;BME280;49465;57.664;39.686;2023-02-26T05:19:58;98224.16;;;4.08;64.95
63343;BME280;49465;57.664;39.686;2023-02-26T05:22:30;98222.47;;;4.20;65.40
63343;BME280;49465;57.664;39.686;2023-02-26T05:25:03;98221.03;;;4.16;64.90
63343;BME280;49465;57.664;39.686;2023-02-26T05:27:32;98213.38;;;4.02;65.04
63343;BME280;49465;57.664;39.686;2023-02-26T05:30:02;98206.94;;;4.07;65.12
63343;BME280;49465;57.664;39.686;2023-02-26T05:32:32;98215.94;;;4.14;65.38
63343;BME280;49465;57.664;39.686;2023-02-26T05:35:04;98206.50;;;4.13;64.92
63343;BME280;49465;57.664;39.686;2023-02-26T05:37:32;98218.16;;;4.08;64.90
63343;BME280;49465;57.664;39.686;2023-02-26T05:39:59;98218.56;;;4.02;65.02
63343;BME280;49465;57.664;39.686;2023-02-26T05:42:25;98200.66;;;3.99;65.88
63343;BME280;49465;57.664;39.686;2023-02-26T05:44:54;98199.88;;;4.09;65.44
63343;BME280;49465;57.664;39.686;2023-02-26T05:47:23;98199.22;;;4.19;64.41
63343;BME280;49465;57.664;39.686;2023-02-26T05:49:56;98196.16;;;4.38;64.76
63343;BME280;49465;57.664;39.686;2023-02-26T05:52:23;98193.84;;;4.22;64.06
63343;BME280;49465;57.664;39.686;2023-02-26T05:54:55;98189.41;;;4.35;64.50
63343;BME280;49465;57.664;39.686;2023-02-26T05:57:22;98176.94;;;4.16;64.41
63343;BME280;49465;57.664;39.686;2023-02-26T05:59:49;98184.81;;;4.14;64.99
63343;BME280;49465;57.664;39.686;2023-02-26T06:02:18;98181.50;;;4.36;64.91
63343;BME280;49465;57.664;39.686;2023-02-26T06:04:47;98179.34;;;4.30;65.25
63343;BME280;49465;57.664;39.686;2023-02-26T06:07:16;98178.66;;;4.28;64.80
63343;BME280;49465;57.664;39.686;2023-02-26T06:09:43;98175.78;;;4.20;64.06
63343;BME280;49465;57.664;39.686;2023-02-26T06:12:09;98162.41;;;4.13;64.27
63343;BME280;49465;57.664;39.686;2023-02-26T06:14:38;98162.09;;;4.18;63.96
63343;BME280;49465;57.664;39.686;2023-02-26T06:17:05;98161.53;;;4.26;64.39
63343;BME280;49465;57.664;39.686;2023-02-26T06:19:34;98156.28;;;4.39;64.58
63343;BME280;49465;57.664;39.686;2023-02-26T06:22:04;98150.16;;;4.15;64.91
63343;BME280;49465;57.664;39.686;2023-02-26T06:24:31;98151.47;;;4.21;64.60
63343;BME280;49465;57.664;39.686;2023-02-26T06:27:00;98153.53;;;4.29;65.04
63343;BME280;49465;57.664;39.686;2023-02-26T06:29:31;98154.06;;;4.21;65.14
63343;BME280;49465;57.664;39.686;2023-02-26T06:32:03;98138.84;;;4.16;64.67
63343;BME280;49465;57.664;39.686;2023-02-26T06:34:33;98133.22;;;4.23;64.53
63343;BME280;49465;57.664;39.686;2023-02-26T06:36:59;98134.38;;;4.19;64.10
63343;BME280;49465;57.664;39.686;2023-02-26T06:39:29;98134.34;;;4.31;64.75
63343;BME280;49465;57.664;39.686;2023-02-26T06:42:01;98128.38;;;4.18;64.60
63343;BME280;49465;57.664;39.686;2023-02-26T06:44:28;98125.53;;;4.21;63.98
63343;BME280;49465;57.664;39.686;2023-02-26T06:46:57;98129.09;;;4.20;64.55
63343;BME280;49465;57.664;39.686;2023-02-26T06:49:26;98131.28;;;4.13;64.46
63343;BME280;49465;57.664;39.686;2023-02-26T06:51:55;98126.41;;;4.33;64.58
63343;BME280;49465;57.664;39.686;2023-02-26T06:54:22;98120.66;;;4.29;64.24
63343;BME280;49465;57.664;39.686;2023-02-26T06:56:49;98118.31;;;4.13;64.08
63343;BME280;49465;57.664;39.686;2023-02-26T06:59:15;98118.25;;;4.26;63.51
63343;BME280;49465;57.664;39.686;2023-02-26T07:01:45;98125.66;;;4.20;63.99
63343;BME280;49465;57.664;39.686;2023-02-26T07:04:18;98129.84;;;4.33;64.88
63343;BME280;49465;57.664;39.686;2023-02-26T07:06:48;98123.56;;;4.25;64.64
63343;BME280;49465;57.664;39.686;2023-02-26T07:09:17;98108.03;;;4.36;64.21
63343;BME280;49465;57.664;39.686;2023-02-26T07:11:46;98113.28;;;4.23;64.49
63343;BME280;49465;57.664;39.686;2023-02-26T07:14:18;98106.53;;;4.45;63.98
63343;BME280;49465;57.664;39.686;2023-02-26T07:16:49;98108.97;;;4.35;64.47
63343;BME280;49465;57.664;39.686;2023-02-26T07:19:19;98090.59;;;4.38;64.61
63343;BME280;49465;57.664;39.686;2023-02-26T07:21:51;98103.56;;;4.38;64.28
63343;BME280;49465;57.664;39.686;2023-02-26T07:24:21;98095.41;;;4.31;64.08
63343;BME280;49465;57.664;39.686;2023-02-26T07:26:47;98097.72;;;4.23;64.67
63343;BME280;49465;57.664;39.686;2023-02-26T07:29:16;98087.13;;;4.26;64.06
63343;BME280;49465;57.664;39.686;2023-02-26T07:31:48;98088.34;;;4.45;64.49
63343;BME280;49465;57.664;39.686;2023-02-26T07:34:17;98093.44;;;4.46;64.48
63343;BME280;49465;57.664;39.686;2023-02-26T07:36:46;98085.47;;;4.25;64.14
63343;BME280;49465;57.664;39.686;2023-02-26T07:39:12;98086.69;;;4.32;63.69
63343;BME280;49465;57.664;39.686;2023-02-26T07:41:39;98085.59;;;4.24;64.42
63343;BME280;49465;57.664;39.686;2023-02-26T07:44:05;98090.44;;;4.28;64.30
63343;BME280;49465;57.664;39.686;2023-02-26T07:46:32;98092.31;;;4.26;64.78
63343;BME280;49465;57.664;39.686;2023-02-26T07:48:59;98081.94;;;4.26;63.79
63343;BME280;49465;57.664;39.686;2023-02-26T07:51:25;98080.28;;;4.25;64.43
63343;BME280;49465;57.664;39.686;2023-02-26T07:53:52;98078.03;;;4.21;64.18
63343;BME280;49465;57.664;39.686;2023-02-26T07:56:19;98078.19;;;4.30;63.80
63343;BME280;49465;57.664;39.686;2023-02-26T07:58:45;98081.28;;;4.35;63.48
63343;BME280;49465;57.664;39.686;2023-02-26T08:01:12;98081.03;;;4.39;63.99
63343;BME280;49465;57.664;39.686;2023-02-26T08:03:38;98080.31;;;4.36;63.78
63343;BME280;49465;57.664;39.686;2023-02-26T08:06:05;98079.38;;;4.38;63.45
63343;BME280;49465;57.664;39.686;2023-02-26T08:08:35;98073.34;;;4.37;63.64
63343;BME280;49465;57.664;39.686;2023-02-26T08:11:02;98078.31;;;4.40;63.89
63343;BME280;49465;57.664;39.686;2023-02-26T08:13:31;98081.28;;;4.47;63.50
63343;BME280;49465;57.664;39.686;2023-02-26T08:15:58;98081.03;;;4.39;64.00
63343;BME280;49465;57.664;39.686;2023-02-26T08:18:25;98082.44;;;4.43;63.91
63343;BME280;49465;57.664;39.686;2023-02-26T08:20:51;98081.53;;;4.44;64.22
63343;BME280;49465;57.664;39.686;2023-02-26T08:23:21;98082.44;;;4.43;63.46
63343;BME280;49465;57.664;39.686;2023-02-26T08:25:48;98080.56;;;4.45;63.34
63343;BME280;49465;57.664;39.686;2023-02-26T08:28:15;98078.09;;;4.43;63.94
63343;BME280;49465;57.664;39.686;2023-02-26T08:30:44;98088.63;;;4.53;63.12
63343;BME280;49465;57.664;39.686;2023-02-26T08:33:11;98090.28;;;4.54;63.57
63343;BME280;49465;57.664;39.686;2023-02-26T08:35:38;98092.75;;;4.55;63.21
63343;BME280;49465;57.664;39.686;2023-02-26T08:38:05;98086.63;;;4.56;62.86
63343;BME280;49465;57.664;39.686;2023-02-26T08:40:31;98083.44;;;4.53;63.00
63343;BME280;49465;57.664;39.686;2023-02-26T08:42:58;98081.66;;;4.53;63.13
63343;BME280;49465;57.664;39.686;2023-02-26T08:45:25;98087.22;;;4.60;63.28
63343;BME280;49465;57.664;39.686;2023-02-26T08:47:51;98086.84;;;4.53;63.40
63343;BME280;49465;57.664;39.686;2023-02-26T08:50:20;98093.97;;;4.63;62.83
63343;BME280;49465;57.664;39.686;2023-02-26T08:52:47;98102.31;;;4.66;63.43
63343;BME280;49465;57.664;39.686;2023-02-26T08:55:14;98090.31;;;4.65;62.83
63343;BME280;49465;57.664;39.686;2023-02-26T08:57:41;98091.22;;;4.64;62.85
63343;BME280;49465;57.664;39.686;2023-02-26T09:00:08;98103.28;;;4.65;63.48
63343;BME280;49465;57.664;39.686;2023-02-26T09:02:38;98110.13;;;4.66;63.74
63343;BME280;49465;57.664;39.686;2023-02-26T09:05:05;98103.63;;;4.72;63.43
63343;BME280;49465;57.664;39.686;2023-02-26T09:07:32;98102.31;;;4.66;62.87
63343;BME280;49465;57.664;39.686;2023-02-26T09:09:58;98099.28;;;4.72;62.84
63343;BME280;49465;57.664;39.686;2023-02-26T09:12:28;98101.53;;;4.77;62.73
63343;BME280;49465;57.664;39.686;2023-02-26T09:14:54;98110.53;;;4.84;62.81
63343;BME280;49465;57.664;39.686;2023-02-26T09:17:24;98110.03;;;4.79;62.98
63343;BME280;49465;57.664;39.686;2023-02-26T09:19:51;98105.78;;;4.67;63.51
63343;BME280;49465;57.664;39.686;2023-02-26T09:22:18;98111.53;;;4.70;63.55
63343;BME280;49465;57.664;39.686;2023-02-26T09:24:56;98118.81;;;5.01;64.05
63343;BME280;49465;57.664;39.686;2023-02-26T09:27:26;98108.63;;;4.75;63.28
63343;BME280;49465;57.664;39.686;2023-02-26T09:29:52;98119.59;;;4.79;63.35
63343;BME280;49465;57.664;39.686;2023-02-26T09:32:19;98117.44;;;4.61;64.61
63343;BME280;49465;57.664;39.686;2023-02-26T09:34:46;98111.53;;;4.70;63.89
63343;BME280;49465;57.664;39.686;2023-02-26T09:37:12;98116.50;;;4.73;63.96
63343;BME280;49465;57.664;39.686;2023-02-26T09:39:39;98112.72;;;4.66;64.24
63343;BME280;49465;57.664;39.686;2023-02-26T09:44:38;98118.88;;;4.88;64.07
63343;BME280;49465;57.664;39.686;2023-02-26T09:47:16;98127.19;;;5.04;63.40
63343;BME280;49465;57.664;39.686;2023-02-26T09:52:39;98126.25;;;5.17;63.58
63343;BME280;49465;57.664;39.686;2023-02-26T09:55:16;98126.50;;;5.36;63.61
63343;BME280;49465;57.664;39.686;2023-02-26T09:57:48;98127.91;;;5.18;62.92
63343;BME280;49465;57.664;39.686;2023-02-26T10:00:59;98128.13;;;5.71;62.26
63343;BME280;49465;57.664;39.686;2023-02-26T10:06:16;98137.13;;;5.22;62.21
63343;BME280;49465;57.664;39.686;2023-02-26T10:12:13;98141.38;;;5.45;62.99
63343;BME280;49465;57.664;39.686;2023-02-26T10:25:41;98158.13;;;5.75;62.15
63343;BME280;49465;57.664;39.686;2023-02-26T10:28:33;98174.66;;;5.85;61.77
63343;BME280;49465;57.664;39.686;2023-02-26T10:31:37;98174.66;;;6.08;61.38
63343;BME280;49465;57.664;39.686;2023-02-26T10:34:36;98169.22;;;6.00;61.32
63343;BME280;49465;57.664;39.686;2023-02-26T10:38:01;98172.88;;;6.08;61.44
63343;BME280;49465;57.664;39.686;2023-02-26T10:40:59;98184.97;;;5.98;61.10
63343;BME280;49465;57.664;39.686;2023-02-26T10:46:29;98186.50;;;6.01;61.35
63343;BME280;49465;57.664;39.686;2023-02-26T10:51:35;98190.16;;;5.75;61.51
63343;BME280;49465;57.664;39.686;2023-02-26T10:54:30;98198.44;;;6.03;61.45
63343;BME280;49465;57.664;39.686;2023-02-26T10:57:00;98192.03;;;5.62;61.27
63343;BME280;49465;57.664;39.686;2023-02-26T10:59:27;98201.41;;;5.65;61.74
63343;BME280;49465;57.664;39.686;2023-02-26T11:01:54;98205.66;;;5.66;61.48
63343;BME280;49465;57.664;39.686;2023-02-26T11:04:24;98210.03;;;5.77;61.91
63343;BME280;49465;57.664;39.686;2023-02-26T11:07:01;98211.28;;;5.93;62.07
63343;BME280;49465;57.664;39.686;2023-02-26T11:09:37;98209.06;;;5.78;62.03
63343;BME280;49465;57.664;39.686;2023-02-26T11:14:38;98225.84;;;5.73;61.56
63343;BME280;49465;57.664;39.686;2023-02-26T11:17:21;98226.56;;;6.09;61.12
63343;BME280;49465;57.664;39.686;2023-02-26T11:20:04;98234.00;;;5.91;61.20
63343;BME280;49465;57.664;39.686;2023-02-26T11:22:46;98228.34;;;5.98;60.74
63343;BME280;49465;57.664;39.686;2023-02-26T11:25:17;98228.56;;;5.94;60.66
63343;BME280;49465;57.664;39.686;2023-02-26T11:27:48;98243.25;;;5.96;60.49
63343;BME280;49465;57.664;39.686;2023-02-26T11:30:23;98241.09;;;5.89;60.97
63343;BME280;49465;57.664;39.686;2023-02-26T11:32:53;98244.50;;;5.90;60.51
63343;BME280;49465;57.664;39.686;2023-02-26T11:35:26;98247.38;;;5.87;60.39
63343;BME280;49465;57.664;39.686;2023-02-26T11:37:57;98256.97;;;5.98;60.41
63343;BME280;49465;57.664;39.686;2023-02-26T11:40:36;98257.44;;;6.03;60.42
63343;BME280;49465;57.664;39.686;2023-02-26T11:43:15;98262.53;;;6.04;60.10
63343;BME280;49465;57.664;39.686;2023-02-26T11:45:50;98263.56;;;6.13;60.02
63343;BME280;49465;57.664;39.686;2023-02-26T11:48:59;98262.03;;;6.22;60.04
63343;BME280;49465;57.664;39.686;2023-02-26T11:51:21;98252.94;;;6.05;60.00
63343;BME280;49465;57.664;39.686;2023-02-26T11:53:59;98259.06;;;5.92;59.70
63343;BME280;49465;57.664;39.686;2023-02-26T11:56:42;98262.75;;;6.24;59.96
63343;BME280;49465;57.664;39.686;2023-02-26T11:59:21;98264.88;;;6.30;59.44
63343;BME280;49465;57.664;39.686;2023-02-26T12:01:52;98272.56;;;6.09;60.06
63343;BME280;49465;57.664;39.686;2023-02-26T12:04:21;98271.63;;;5.99;59.85
63343;BME280;49465;57.664;39.686;2023-02-26T12:06:55;98279.44;;;6.10;59.69
63343;BME280;49465;57.664;39.686;2023-02-26T12:09:25;98274.69;;;5.81;60.58
63343;BME280;49465;57.664;39.686;2023-02-26T12:14:32;98277.50;;;5.89;59.88
63343;BME280;49465;57.664;39.686;2023-02-26T12:54:06;98314.81;;;6.24;59.51
63343;BME280;49465;57.664;39.686;2023-02-26T13:16:58;98340.13;;;6.22;59.19
63343;BME280;49465;57.664;39.686;2023-02-26T13:20:09;98335.03;;;6.31;58.95
63343;BME280;49465;57.664;39.686;2023-02-26T13:22:54;98345.53;;;6.19;58.83
63343;BME280;49465;57.664;39.686;2023-02-26T13:25:36;98349.44;;;6.02;59.45
63343;BME280;49465;57.664;39.686;2023-02-26T13:30:57;98363.44;;;5.65;59.95
63343;BME280;49465;57.664;39.686;2023-02-26T13:33:30;98368.78;;;5.86;59.93
63343;BME280;49465;57.664;39.686;2023-02-26T13:36:00;98364.88;;;5.81;59.46
63343;BME280;49465;57.664;39.686;2023-02-26T13:41:36;98368.72;;;6.10;59.40
63343;BME280;49465;57.664;39.686;2023-02-26T13:50:20;98375.47;;;6.13;59.47
63343;BME280;49465;57.664;39.686;2023-02-26T13:56:15;98374.63;;;6.01;59.75
63343;BME280;49465;57.664;39.686;2023-02-26T13:58:59;98369.53;;;6.00;59.64
63343;BME280;49465;57.664;39.686;2023-02-26T14:04:59;98393.53;;;5.92;59.54
63343;BME280;49465;57.664;39.686;2023-02-26T14:08:07;98393.44;;;6.05;59.36
63343;BME280;49465;57.664;39.686;2023-02-26T14:10:56;98397.56;;;5.96;58.92
63343;BME280;49465;57.664;39.686;2023-02-26T14:16:26;98405.38;;;5.96;59.58
63343;BME280;49465;57.664;39.686;2023-02-26T14:19:02;98414.78;;;5.50;59.24
63343;BME280;49465;57.664;39.686;2023-02-26T14:24:28;98411.56;;;5.71;59.63
63343;BME280;49465;57.664;39.686;2023-02-26T14:29:59;98414.34;;;5.92;59.01
63343;BME280;49465;57.664;39.686;2023-02-26T14:43:41;98447.44;;;5.66;58.95
63343;BME280;49465;57.664;39.686;2023-02-26T14:46:29;98439.25;;;5.83;58.37
63343;BME280;49465;57.664;39.686;2023-02-26T14:49:00;98451.31;;;5.49;58.52
63343;BME280;49465;57.664;39.686;2023-02-26T14:58:09;98454.34;;;5.78;58.56
63343;BME280;49465;57.664;39.686;2023-02-26T15:09:58;98471.50;;;5.57;58.19
63343;BME280;49465;57.664;39.686;2023-02-26T15:15:32;98465.50;;;5.32;57.92
63343;BME280;49465;57.664;39.686;2023-02-26T15:23:42;98472.34;;;5.33;58.35
63343;BME280;49465;57.664;39.686;2023-02-26T15:26:38;98474.63;;;5.38;58.03
63343;BME280;49465;57.664;39.686;2023-02-26T15:29:13;98486.00;;;5.24;58.05
63343;BME280;49465;57.664;39.686;2023-02-26T15:31:44;98489.78;;;5.07;58.31
63343;BME280;49465;57.664;39.686;2023-02-26T15:34:24;98486.38;;;5.06;58.27
63343;BME280;49465;57.664;39.686;2023-02-26T15:36:51;98494.38;;;5.03;58.62
63343;BME280;49465;57.664;39.686;2023-02-26T15:39:25;98501.09;;;5.19;59.02
63343;BME280;49465;57.664;39.686;2023-02-26T15:41:55;98493.53;;;5.03;58.59
63343;BME280;49465;57.664;39.686;2023-02-26T15:44:29;98504.22;;;5.11;59.21
63343;BME280;49465;57.664;39.686;2023-02-26T15:47:01;98501.97;;;5.06;58.98
63343;BME280;49465;57.664;39.686;2023-02-26T15:49:39;98496.94;;;5.16;58.99
63343;BME280;49465;57.664;39.686;2023-02-26T15:52:15;98504.09;;;5.25;58.34
63343;BME280;49465;57.664;39.686;2023-02-26T15:54:51;98517.31;;;5.22;58.66
63343;BME280;49465;57.664;39.686;2023-02-26T15:57:20;98517.31;;;5.09;58.79
63343;BME280;49465;57.664;39.686;2023-02-26T15:59:53;98516.50;;;5.09;59.15
63343;BME280;49465;57.664;39.686;2023-02-26T16:02:34;98528.81;;;5.31;58.69
63343;BME280;49465;57.664;39.686;2023-02-26T16:05:03;98527.53;;;5.00;58.79
63343;BME280;49465;57.664;39.686;2023-02-26T16:07:30;98525.34;;;4.93;59.09
63343;BME280;49465;57.664;39.686;2023-02-26T16:10:25;98537.84;;;5.38;59.19
63343;BME280;49465;57.664;39.686;2023-02-26T16:12:59;98544.25;;;5.08;59.64
63343;BME280;49465;57.664;39.686;2023-02-26T16:15:37;98547.13;;;5.29;59.43
63343;BME280;49465;57.664;39.686;2023-02-26T16:18:08;98551.03;;;4.98;60.01
63343;BME280;49465;57.664;39.686;2023-02-26T16:20:45;98555.13;;;5.13;59.51
63343;BME280;49465;57.664;39.686;2023-02-26T16:23:16;98556.94;;;5.00;59.48
63343;BME280;49465;57.664;39.686;2023-02-26T16:25:59;98558.44;;;5.28;59.10
63343;BME280;49465;57.664;39.686;2023-02-26T16:28:33;98559.59;;;5.11;59.87
63343;BME280;49465;57.664;39.686;2023-02-26T16:31:04;98555.78;;;4.91;59.77
63343;BME280;49465;57.664;39.686;2023-02-26T16:33:37;98551.00;;;5.11;59.58
63343;BME280;49465;57.664;39.686;2023-02-26T16:36:14;98559.41;;;5.14;59.63
63343;BME280;49465;57.664;39.686;2023-02-26T16:41:47;98552.66;;;5.12;59.56
63343;BME280;49465;57.664;39.686;2023-02-26T16:47:14;98563.91;;;4.87;58.96
63343;BME280;49465;57.664;39.686;2023-02-26T16:49:44;98567.44;;;4.99;59.09
63343;BME280;49465;57.664;39.686;2023-02-26T16:52:20;98568.69;;;5.06;58.96
63343;BME280;49465;57.664;39.686;2023-02-26T16:55:03;98569.28;;;5.22;59.06
63343;BME280;49465;57.664;39.686;2023-02-26T16:57:44;98569.47;;;5.19;58.66
63343;BME280;49465;57.664;39.686;2023-02-26T17:00:17;98572.00;;;4.95;58.78
63343;BME280;49465;57.664;39.686;2023-02-26T17:02:52;98578.22;;;4.80;58.43
63343;BME280;49465;57.664;39.686;2023-02-26T17:05:25;98576.03;;;4.99;59.17
63343;BME280;49465;57.664;39.686;2023-02-26T17:13:28;98574.19;;;5.01;58.20
63343;BME280;49465;57.664;39.686;2023-02-26T17:16:07;98574.59;;;4.95;58.29
63343;BME280;49465;57.664;39.686;2023-02-26T17:18:36;98580.34;;;4.74;58.80
63343;BME280;49465;57.664;39.686;2023-02-26T17:21:06;98565.66;;;4.73;58.62
63343;BME280;49465;57.664;39.686;2023-02-26T17:23:39;98573.66;;;4.83;58.58
63343;BME280;49465;57.664;39.686;2023-02-26T17:26:11;98578.78;;;4.85;58.07
63343;BME280;49465;57.664;39.686;2023-02-26T17:28:45;98578.78;;;4.85;58.55
63343;BME280;49465;57.664;39.686;2023-02-26T17:31:23;98587.50;;;4.97;57.71
63343;BME280;49465;57.664;39.686;2023-02-26T17:33:50;98580.94;;;4.65;57.13
63343;BME280;49465;57.664;39.686;2023-02-26T17:36:23;98586.03;;;4.80;57.36
63343;BME280;49465;57.664;39.686;2023-02-26T17:38:54;98585.59;;;4.60;57.58
63343;BME280;49465;57.664;39.686;2023-02-26T17:41:26;98588.22;;;4.73;57.69
63343;BME280;49465;57.664;39.686;2023-02-26T17:43:59;98592.56;;;4.60;57.19
63343;BME280;49465;57.664;39.686;2023-02-26T17:46:28;98591.84;;;4.58;56.47
63343;BME280;49465;57.664;39.686;2023-02-26T17:48:58;98595.47;;;4.55;57.04
63343;BME280;49465;57.664;39.686;2023-02-26T17:51:27;98603.13;;;4.56;56.55
63343;BME280;49465;57.664;39.686;2023-02-26T17:53:54;98605.00;;;4.42;56.39
63343;BME280;49465;57.664;39.686;2023-02-26T17:56:33;98600.25;;;4.61;56.38
63343;BME280;49465;57.664;39.686;2023-02-26T17:59:08;98608.66;;;4.52;56.55
63343;BME280;49465;57.664;39.686;2023-02-26T18:01:58;98616.69;;;4.74;56.11
63343;BME280;49465;57.664;39.686;2023-02-26T18:04:28;98612.78;;;4.42;56.05
63343;BME280;49465;57.664;39.686;2023-02-26T18:07:00;98618.47;;;4.34;56.62
63343;BME280;49465;57.664;39.686;2023-02-26T18:09:35;98621.94;;;4.60;56.37
63343;BME280;49465;57.664;39.686;2023-02-26T18:12:01;98622.09;;;5.10;55.22
63343;BME280;49465;57.664;39.686;2023-02-26T18:14:33;98628.69;;;4.50;55.80
63343;BME280;49465;57.664;39.686;2023-02-26T18:16:59;98628.50;;;4.53;56.18
63343;BME280;49465;57.664;39.686;2023-02-26T18:19:26;98631.88;;;4.41;56.02
63343;BME280;49465;57.664;39.686;2023-02-26T18:22:11;98637.22;;;4.65;55.85
63343;BME280;49465;57.664;39.686;2023-02-26T18:24:42;98637.06;;;4.41;55.49
63343;BME280;49465;57.664;39.686;2023-02-26T18:27:21;98644.28;;;4.75;56.47
63343;BME280;49465;57.664;39.686;2023-02-26T18:29:54;98644.16;;;4.51;55.98
63343;BME280;49465;57.664;39.686;2023-02-26T18:32:27;98645.88;;;4.38;55.94
63343;BME280;49465;57.664;39.686;2023-02-26T18:35:02;98647.31;;;4.29;56.33
63343;BME280;49465;57.664;39.686;2023-02-26T18:37:33;98652.44;;;4.44;55.86
63343;BME280;49465;57.664;39.686;2023-02-26T18:40:03;98655.88;;;4.44;56.03
63343;BME280;49465;57.664;39.686;2023-02-26T18:42:32;98647.19;;;4.31;55.90
63343;BME280;49465;57.664;39.686;2023-02-26T18:45:05;98652.13;;;4.48;55.78
63343;BME280;49465;57.664;39.686;2023-02-26T18:47:38;98659.63;;;4.53;55.69
63343;BME280;49465;57.664;39.686;2023-02-26T18:50:10;98664.69;;;4.42;56.01
63343;BME280;49465;57.664;39.686;2023-02-26T18:52:44;98667.03;;;4.32;55.73
63343;BME280;49465;57.664;39.686;2023-02-26T18:55:21;98673.13;;;4.45;55.26
63343;BME280;49465;57.664;39.686;2023-02-26T18:57:51;98676.19;;;4.38;55.52
63343;BME280;49465;57.664;39.686;2023-02-26T19:00:21;98679.03;;;4.20;55.88
63343;BME280;49465;57.664;39.686;2023-02-26T19:02:55;98686.09;;;4.18;55.88
63343;BME280;49465;57.664;39.686;2023-02-26T19:05:22;98681.53;;;4.22;55.54
63343;BME280;49465;57.664;39.686;2023-02-26T19:07:55;98685.00;;;4.35;56.07
63343;BME280;49465;57.664;39.686;2023-02-26T19:10:30;98687.97;;;4.16;55.81
63343;BME280;49465;57.664;39.686;2023-02-26T19:12:59;98689.16;;;4.10;55.77
63343;BME280;49465;57.664;39.686;2023-02-26T19:15:26;98693.41;;;4.11;55.54
63343;BME280;49465;57.664;39.686;2023-02-26T19:17:59;98702.56;;;4.17;56.04
63343;BME280;49465;57.664;39.686;2023-02-26T19:20:29;98704.66;;;4.12;55.79
63343;BME280;49465;57.664;39.686;2023-02-26T19:23:00;98698.25;;;4.03;56.22
63343;BME280;49465;57.664;39.686;2023-02-26T19:25:30;98704.97;;;4.20;55.33
63343;BME280;49465;57.664;39.686;2023-02-26T19:28:04;98711.81;;;4.21;55.48
63343;BME280;49465;57.664;39.686;2023-02-26T19:30:30;98710.56;;;4.00;55.40
63343;BME280;49465;57.664;39.686;2023-02-26T19:32:59;98717.25;;;4.04;55.46
63343;BME280;49465;57.664;39.686;2023-02-26T19:35:29;98710.56;;;4.00;55.48
63343;BME280;49465;57.664;39.686;2023-02-26T19:37:56;98723.75;;;3.96;55.74
63343;BME280;49465;57.664;39.686;2023-02-26T19:40:26;98720.59;;;4.06;55.25
63343;BME280;49465;57.664;39.686;2023-02-26T19:42:53;98713.56;;;3.93;55.98
63343;BME280;49465;57.664;39.686;2023-02-26T19:45:19;98709.75;;;3.99;55.49
63343;BME280;49465;57.664;39.686;2023-02-26T19:47:49;98713.81;;;4.03;55.96
63343;BME280;49465;57.664;39.686;2023-02-26T19:50:18;98726.59;;;3.92;56.01
63343;BME280;49465;57.664;39.686;2023-02-26T19:52:50;98729.59;;;4.00;56.12
63343;BME280;49465;57.664;39.686;2023-02-26T19:55:22;98736.03;;;4.07;55.57
63343;BME280;49465;57.664;39.686;2023-02-26T19:57:54;98746.72;;;4.03;55.67
63343;BME280;49465;57.664;39.686;2023-02-26T20:00:21;98732.91;;;3.88;55.54
63343;BME280;49465;57.664;39.686;2023-02-26T20:03:06;98741.66;;;4.28;55.82
63343;BME280;49465;57.664;39.686;2023-02-26T20:05:35;98737.63;;;3.95;55.79
63343;BME280;49465;57.664;39.686;2023-02-26T20:08:05;98739.69;;;3.90;55.98
63343;BME280;49465;57.664;39.686;2023-02-26T20:10:37;98732.97;;;4.15;55.68
63343;BME280;49465;57.664;39.686;2023-02-26T20:13:04;98740.06;;;3.84;55.75
63343;BME280;49465;57.664;39.686;2023-02-26T20:15:36;98749.69;;;3.96;55.40
63343;BME280;49465;57.664;39.686;2023-02-26T20:18:02;98745.91;;;3.73;55.67